Indian Lake, Indiana
Current Conditions -  °F | °C
As of 11:55 PM on Friday 24 Oct 2014 (Local Time) from KGWB Reporting Station
Haze Haze  
Wind Chill: 52°   Ceiling: Unl
Heat Index: 52°   Visibility: 5mi
Dew Point: 48°   Wind: 5mph
Humidity: 88%   Direction: 200°SSW
Pressure: 29.99"   Gusts: NA
Location:  41.4621°N, 85.1517°W
Report Text: KGWB 250355Z AUTO 20004KT 5SM BR CLR 11/09 A2999 RMK AO2
Loading
Personal Weather Stations






























Interactive Weather Map New forecast layout! Learn more

10-Day Weather Forecast

Advertisements
Track Severe Weather on mobile